createdAt,value
2019-02-27T00:00:48.682Z,83.17
2019-02-27T00:01:52.854Z,83.12
2019-02-27T00:02:57.088Z,83.05
2019-02-27T00:04:02.389Z,82.92
2019-02-27T00:05:05.932Z,82.73
2019-02-27T00:06:09.656Z,82.55
2019-02-27T00:07:13.841Z,82.46
2019-02-27T00:08:17.932Z,82.46
2019-02-27T00:09:22.096Z,82.50
2019-02-27T00:10:26.341Z,82.52
2019-02-27T00:11:30.640Z,82.50
2019-02-27T00:12:34.800Z,82.48
2019-02-27T00:13:38.914Z,82.63
2019-02-27T00:14:43.072Z,82.70
2019-02-27T00:15:47.323Z,82.75
2019-02-27T00:16:51.505Z,82.74
2019-02-27T00:17:55.830Z,82.69
2019-02-27T00:18:59.999Z,82.69
2019-02-27T00:20:05.215Z,82.74
2019-02-27T00:21:11.012Z,82.89
2019-02-27T00:22:17.261Z,82.95
2019-02-27T00:23:16.842Z,82.87
2019-02-27T00:24:21.065Z,82.92
2019-02-27T00:25:25.262Z,82.92
2019-02-27T00:26:29.468Z,82.89
2019-02-27T00:27:33.676Z,82.81
2019-02-27T00:28:37.891Z,82.67
2019-02-27T00:29:42.078Z,82.67
2019-02-27T00:30:46.269Z,82.67
2019-02-27T00:31:50.492Z,82.59
2019-02-27T00:32:54.707Z,82.65
2019-02-27T00:33:59.943Z,82.68
2019-02-27T00:35:06.501Z,82.69
2019-02-27T00:36:07.256Z,82.72
2019-02-27T00:37:11.278Z,82.60
2019-02-27T00:38:15.603Z,82.36
2019-02-27T00:39:19.809Z,82.26
2019-02-27T00:40:23.919Z,82.15
2019-02-27T00:41:28.169Z,82.09
2019-02-27T00:42:33.770Z,82.11
2019-02-27T00:43:36.521Z,82.08
2019-02-27T00:44:40.628Z,82.02
2019-02-27T00:45:44.771Z,81.92
2019-02-27T00:46:49.026Z,81.88
2019-02-27T00:47:53.803Z,81.92
2019-02-27T00:48:59.301Z,81.95
2019-02-27T00:50:05.660Z,81.93
2019-02-27T00:51:05.704Z,81.95
2019-02-27T00:52:09.968Z,81.91
2019-02-27T00:53:14.175Z,81.80
2019-02-27T00:54:18.338Z,81.82
2019-02-27T00:55:22.567Z,81.94
2019-02-27T00:56:26.762Z,82.05
2019-02-27T00:57:31.060Z,82.04
2019-02-27T00:58:35.234Z,82.01
2019-02-27T00:59:39.568Z,81.91
2019-02-27T01:00:43.711Z,81.74
2019-02-27T01:01:48.023Z,81.65
2019-02-27T01:02:53.459Z,81.68
2019-02-27T01:03:59.281Z,81.68
2019-02-27T01:05:00.486Z,81.64
2019-02-27T01:06:04.703Z,81.54
2019-02-27T01:07:08.807Z,81.57
2019-02-27T01:08:13.071Z,81.61
2019-02-27T01:09:17.306Z,81.67
2019-02-27T01:10:21.465Z,81.69
2019-02-27T01:11:25.678Z,81.77
2019-02-27T01:12:29.697Z,81.93
2019-02-27T01:13:34.021Z,82.00
2019-02-27T01:14:38.255Z,81.93
2019-02-27T01:15:44.724Z,81.93
2019-02-27T01:16:47.680Z,81.97
2019-02-27T01:17:50.774Z,82.04
2019-02-27T01:18:54.888Z,82.07
2019-02-27T01:19:59.133Z,82.16
2019-02-27T01:21:03.237Z,82.10
2019-02-27T01:22:07.464Z,82.03
2019-02-27T01:23:11.655Z,81.97
2019-02-27T01:24:17.461Z,81.79
2019-02-27T01:25:22.889Z,81.75
2019-02-27T01:26:24.228Z,81.53
2019-02-27T01:27:28.438Z,81.46
2019-02-27T01:28:32.714Z,81.58
2019-02-27T01:29:36.888Z,81.61
2019-02-27T01:30:40.966Z,81.63
2019-02-27T01:31:45.054Z,81.66
2019-02-27T01:32:49.318Z,81.66
2019-02-27T01:33:53.339Z,81.73
2019-02-27T01:34:57.573Z,81.76
2019-02-27T01:36:01.716Z,81.81
2019-02-27T01:37:05.858Z,81.91
2019-02-27T01:38:10.057Z,81.87
2019-02-27T01:39:14.330Z,81.89
2019-02-27T01:40:18.684Z,81.89
2019-02-27T01:41:24.669Z,81.93
2019-02-27T01:42:32.019Z,82.00
2019-02-27T01:43:31.007Z,82.02
2019-02-27T01:44:35.037Z,81.99
2019-02-27T01:45:39.343Z,81.99
2019-02-27T01:46:43.446Z,82.00
2019-02-27T01:47:47.682Z,82.01
2019-02-27T01:48:51.724Z,82.00
2019-02-27T01:49:55.921Z,82.01
2019-02-27T01:51:00.167Z,82.01
2019-02-27T01:52:04.246Z,81.93
2019-02-27T01:53:08.526Z,81.84
2019-02-27T01:54:15.069Z,81.76
2019-02-27T01:55:16.914Z,81.78
2019-02-27T01:56:21.143Z,81.92
2019-02-27T01:57:25.211Z,81.97
2019-02-27T01:58:29.496Z,81.93
2019-02-27T01:59:33.650Z,81.86
2019-02-27T02:00:37.686Z,81.88
2019-02-27T02:01:41.914Z,81.88
2019-02-27T02:02:46.325Z,81.92
2019-02-27T02:03:50.244Z,81.70
2019-02-27T02:04:54.453Z,81.92
2019-02-27T02:05:59.298Z,82.03
2019-02-27T02:07:04.062Z,82.09
2019-02-27T02:08:06.971Z,82.08
2019-02-27T02:09:11.200Z,82.05
2019-02-27T02:10:15.277Z,82.21
2019-02-27T02:11:19.541Z,82.42
2019-02-27T02:12:23.636Z,82.60
2019-02-27T02:13:27.806Z,82.58
2019-02-27T02:14:31.954Z,82.75
2019-02-27T02:15:36.112Z,83.04
2019-02-27T02:16:40.283Z,83.36
2019-02-27T02:17:44.445Z,83.07
2019-02-27T02:18:48.829Z,82.95
2019-02-27T02:19:54.272Z,82.67
2019-02-27T02:21:00.777Z,82.54
2019-02-27T02:22:01.327Z,82.42
2019-02-27T02:23:05.508Z,82.33
2019-02-27T02:24:09.793Z,82.25
2019-02-27T02:25:13.874Z,82.25
2019-02-27T02:26:18.144Z,82.33
2019-02-27T02:27:22.226Z,82.35
2019-02-27T02:28:26.398Z,82.15
2019-02-27T02:29:30.735Z,82.11
2019-02-27T02:30:34.850Z,81.97
2019-02-27T02:31:41.673Z,81.97
2019-02-27T02:32:43.134Z,81.82
2019-02-27T02:33:47.368Z,81.68
2019-02-27T02:34:51.437Z,81.56
2019-02-27T02:35:55.565Z,81.58
2019-02-27T02:37:02.546Z,81.60
2019-02-27T02:38:03.997Z,81.63
2019-02-27T02:39:08.194Z,81.41
2019-02-27T02:40:12.272Z,81.18
2019-02-27T02:41:16.405Z,81.08
2019-02-27T02:42:24.328Z,81.11
2019-02-27T02:43:24.711Z,81.14
2019-02-27T02:44:28.954Z,81.11
2019-02-27T02:45:33.768Z,81.22
2019-02-27T02:46:37.337Z,81.42
2019-02-27T02:47:41.346Z,81.53
2019-02-27T02:48:45.466Z,81.44
2019-02-27T02:49:49.624Z,81.42
2019-02-27T02:50:54.982Z,81.44
2019-02-27T02:51:58.020Z,81.50
2019-02-27T02:53:02.200Z,81.34
2019-02-27T02:54:06.277Z,81.35
2019-02-27T02:55:12.742Z,81.36
2019-02-27T02:56:14.676Z,81.45
2019-02-27T02:57:18.909Z,81.35
2019-02-27T02:58:23.096Z,81.30
2019-02-27T02:59:31.099Z,81.32
2019-02-27T03:00:37.706Z,81.42
2019-02-27T03:01:38.356Z,81.43
2019-02-27T03:02:42.521Z,81.47
2019-02-27T03:03:46.586Z,81.52
2019-02-27T03:04:50.855Z,81.54
2019-02-27T03:05:58.911Z,81.53
2019-02-27T03:06:59.173Z,81.61
2019-02-27T03:08:03.324Z,81.75
2019-02-27T03:09:07.458Z,81.82
2019-02-27T03:10:11.691Z,81.88
2019-02-27T03:11:19.055Z,82.01
2019-02-27T03:12:19.820Z,82.08
2019-02-27T03:13:23.904Z,82.13
2019-02-27T03:14:28.186Z,82.12
2019-02-27T03:15:32.301Z,82.11
2019-02-27T03:16:41.075Z,82.03
2019-02-27T03:17:40.803Z,82.39
2019-02-27T03:18:44.956Z,82.42
2019-02-27T03:19:49.227Z,82.36
2019-02-27T03:20:53.412Z,82.79
2019-02-27T03:22:03.234Z,82.57
2019-02-27T03:23:01.625Z,82.48
2019-02-27T03:24:06.003Z,82.32
2019-02-27T03:25:10.129Z,81.89
2019-02-27T03:26:16.770Z,81.63
2019-02-27T03:27:18.499Z,81.65
2019-02-27T03:28:22.716Z,81.51
2019-02-27T03:29:26.902Z,81.53
2019-02-27T03:30:36.344Z,81.60
2019-02-27T03:31:35.230Z,81.75
2019-02-27T03:32:43.181Z,81.86
2019-02-27T03:33:43.488Z,82.08
2019-02-27T03:34:50.770Z,82.15
2019-02-27T03:35:51.711Z,82.22
2019-02-27T03:36:55.971Z,82.38
2019-02-27T03:38:00.169Z,82.52
2019-02-27T03:39:04.177Z,82.72
2019-02-27T03:40:11.774Z,82.78
2019-02-27T03:41:12.471Z,82.72
2019-02-27T03:42:16.683Z,82.64
2019-02-27T03:43:20.883Z,82.56
2019-02-27T03:44:24.939Z,82.54
2019-02-27T03:45:30.981Z,82.52
2019-02-27T03:46:33.218Z,82.59
2019-02-27T03:47:37.397Z,82.64
2019-02-27T03:48:41.589Z,82.70
2019-02-27T03:49:45.748Z,82.75
2019-02-27T03:50:50.911Z,82.78
2019-02-27T03:51:59.689Z,82.81
2019-02-27T03:52:58.200Z,82.84
2019-02-27T03:54:02.318Z,82.89
2019-02-27T03:55:06.545Z,82.82
2019-02-27T03:56:10.710Z,82.63
2019-02-27T03:57:19.008Z,82.40
2019-02-27T03:58:19.092Z,82.58
2019-02-27T03:59:23.255Z,82.80
2019-02-27T04:00:27.495Z,82.50
2019-02-27T04:01:31.698Z,82.05
2019-02-27T04:02:38.864Z,81.70
2019-02-27T04:03:39.840Z,81.73
2019-02-27T04:04:43.923Z,81.73
2019-02-27T04:05:48.186Z,81.88
2019-02-27T04:06:53.048Z,82.14
2019-02-27T04:07:56.660Z,82.27
2019-02-27T04:09:00.762Z,82.38
2019-02-27T04:10:04.980Z,82.42
2019-02-27T04:11:09.162Z,82.29
2019-02-27T04:12:16.014Z,82.24
2019-02-27T04:13:17.533Z,82.18
2019-02-27T04:14:21.614Z,82.23
2019-02-27T04:15:25.874Z,82.25
2019-02-27T04:16:30.495Z,82.20
2019-02-27T04:17:34.239Z,82.16
2019-02-27T04:18:38.473Z,82.23
2019-02-27T04:19:42.545Z,82.19
2019-02-27T04:20:49.681Z,82.34
2019-02-27T04:21:50.909Z,82.22
2019-02-27T04:22:54.993Z,82.15
2019-02-27T04:23:59.290Z,82.12
2019-02-27T04:25:03.352Z,82.22
2019-02-27T04:26:07.585Z,82.40
2019-02-27T04:27:11.905Z,82.66
2019-02-27T04:28:16.049Z,82.61
2019-02-27T04:29:20.141Z,82.55
2019-02-27T04:30:24.405Z,82.44
2019-02-27T04:31:30.597Z,82.42
2019-02-27T04:32:32.779Z,82.48
2019-02-27T04:33:36.912Z,82.42
2019-02-27T04:34:41.000Z,82.41
2019-02-27T04:35:45.254Z,82.68
2019-02-27T04:36:49.328Z,82.44
2019-02-27T04:37:54.377Z,82.40
2019-02-27T04:39:01.868Z,82.26
2019-02-27T04:40:01.857Z,82.24
2019-02-27T04:41:06.051Z,82.15
2019-02-27T04:42:10.176Z,82.07
2019-02-27T04:43:14.426Z,82.11
2019-02-27T04:44:18.557Z,81.99
2019-02-27T04:45:22.775Z,81.93
2019-02-27T04:46:26.852Z,81.89
2019-02-27T04:47:31.114Z,81.95
2019-02-27T04:48:35.214Z,81.96
2019-02-27T04:49:39.459Z,81.87
2019-02-27T04:50:44.155Z,81.83
2019-02-27T04:51:48.127Z,81.94
2019-02-27T04:52:52.015Z,81.88
2019-02-27T04:53:56.187Z,81.85
2019-02-27T04:55:00.331Z,81.85
2019-02-27T04:56:04.555Z,81.85
2019-02-27T04:57:08.781Z,81.85
2019-02-27T04:58:12.856Z,81.79
2019-02-27T04:59:18.610Z,81.78
2019-02-27T05:00:21.206Z,81.86
2019-02-27T05:01:25.431Z,81.82
2019-02-27T05:02:29.604Z,81.70
2019-02-27T05:03:33.789Z,81.66
2019-02-27T05:04:38.039Z,81.62
2019-02-27T05:05:42.117Z,81.58
2019-02-27T05:06:47.386Z,81.55
2019-02-27T05:07:54.117Z,81.60
2019-02-27T05:08:54.644Z,81.62
2019-02-27T05:09:58.915Z,81.51
2019-02-27T05:11:03.014Z,81.47
2019-02-27T05:12:07.331Z,81.49
2019-02-27T05:13:11.497Z,81.42
2019-02-27T05:14:15.714Z,81.41
2019-02-27T05:15:19.808Z,81.45
2019-02-27T05:16:23.945Z,81.41
2019-02-27T05:17:28.215Z,81.42
2019-02-27T05:18:32.285Z,81.39
2019-02-27T05:19:37.206Z,81.38
2019-02-27T05:20:45.054Z,81.32
2019-02-27T05:21:44.815Z,81.28
2019-02-27T05:22:49.024Z,81.28
2019-02-27T05:23:53.104Z,81.25
2019-02-27T05:24:57.293Z,81.24
2019-02-27T05:26:01.480Z,81.21
2019-02-27T05:27:05.732Z,81.23
2019-02-27T05:28:09.922Z,81.20
2019-02-27T05:29:15.798Z,81.20
2019-02-27T05:30:18.282Z,81.19
2019-02-27T05:31:22.388Z,81.16
2019-02-27T05:32:28.266Z,81.16
2019-02-27T05:33:35.712Z,81.13
2019-02-27T05:34:34.936Z,81.14
2019-02-27T05:35:39.216Z,81.17
2019-02-27T05:36:43.301Z,81.14
2019-02-27T05:37:47.453Z,81.14
2019-02-27T05:38:51.720Z,81.14
2019-02-27T05:39:55.866Z,81.13
2019-02-27T05:41:01.016Z,81.11
2019-02-27T05:42:06.451Z,81.13
2019-02-27T05:43:13.186Z,81.14
2019-02-27T05:44:13.613Z,81.08
2019-02-27T05:45:17.872Z,80.89
2019-02-27T05:46:22.026Z,80.73
2019-02-27T05:47:26.076Z,80.72
2019-02-27T05:48:30.282Z,80.86
2019-02-27T05:49:34.486Z,80.99
2019-02-27T05:50:38.694Z,81.12
2019-02-27T05:51:42.732Z,81.19
2019-02-27T05:52:48.904Z,81.23
2019-02-27T05:53:51.110Z,81.27
2019-02-27T05:54:55.367Z,81.28
2019-02-27T05:55:59.587Z,81.28
2019-02-27T05:57:03.796Z,81.25
2019-02-27T05:58:07.998Z,81.19
2019-02-27T05:59:13.070Z,81.20
2019-02-27T06:00:16.874Z,81.22
2019-02-27T06:01:21.085Z,81.23
2019-02-27T06:02:25.595Z,81.21
2019-02-27T06:03:29.570Z,81.18
2019-02-27T06:04:34.547Z,81.15
2019-02-27T06:05:37.923Z,81.12
2019-02-27T06:06:45.851Z,81.12
2019-02-27T06:07:48.385Z,81.11
2019-02-27T06:08:52.415Z,81.08
2019-02-27T06:09:56.631Z,80.99
2019-02-27T06:11:00.947Z,80.65
2019-02-27T06:12:06.975Z,80.38
2019-02-27T06:13:09.442Z,80.25
2019-02-27T06:14:13.467Z,80.23
2019-02-27T06:15:17.634Z,80.39
2019-02-27T06:16:21.848Z,80.48
2019-02-27T06:17:26.195Z,80.66
2019-02-27T06:18:30.179Z,80.82
2019-02-27T06:19:34.430Z,81.01
2019-02-27T06:20:38.968Z,81.20
2019-02-27T06:21:42.705Z,81.27
2019-02-27T06:22:46.868Z,81.33
2019-02-27T06:23:50.989Z,81.35
2019-02-27T06:24:55.224Z,81.34
2019-02-27T06:26:00.250Z,81.39
2019-02-27T06:27:06.094Z,80.81
2019-02-27T06:28:07.752Z,80.20
2019-02-27T06:29:11.888Z,80.17
2019-02-27T06:30:16.171Z,80.41
2019-02-27T06:31:20.410Z,80.55
2019-02-27T06:32:24.519Z,80.62
2019-02-27T06:33:28.803Z,80.77
2019-02-27T06:34:32.992Z,80.84
2019-02-27T06:35:37.081Z,80.94
2019-02-27T06:36:42.833Z,80.91
2019-02-27T06:37:45.413Z,80.75
2019-02-27T06:38:49.660Z,80.78
2019-02-27T06:39:54.226Z,80.84
2019-02-27T06:40:59.383Z,81.02
2019-02-27T06:42:02.151Z,81.16
2019-02-27T06:43:06.270Z,81.27
2019-02-27T06:44:10.521Z,81.34
2019-02-27T06:45:14.689Z,81.42
2019-02-27T06:46:20.023Z,81.49
2019-02-27T06:47:22.906Z,81.61
2019-02-27T06:48:27.179Z,81.71
2019-02-27T06:49:31.415Z,81.76
2019-02-27T06:50:35.564Z,81.79
2019-02-27T06:51:39.821Z,81.85
2019-02-27T06:52:43.903Z,81.86
2019-02-27T06:53:48.154Z,81.92
2019-02-27T06:54:52.903Z,82.10
2019-02-27T06:55:56.561Z,81.94
2019-02-27T06:57:00.714Z,81.94
2019-02-27T06:58:04.831Z,82.05
2019-02-27T06:59:09.092Z,81.71
2019-02-27T07:00:13.291Z,81.43
2019-02-27T07:01:17.361Z,81.47
2019-02-27T07:02:22.276Z,81.45
2019-02-27T07:03:29.187Z,81.62
2019-02-27T07:04:29.926Z,81.63
2019-02-27T07:05:34.202Z,81.65
2019-02-27T07:06:38.303Z,81.61
2019-02-27T07:07:42.558Z,81.54
2019-02-27T07:08:46.608Z,81.48
2019-02-27T07:09:50.737Z,81.42
2019-02-27T07:10:57.325Z,81.37
2019-02-27T07:11:59.276Z,81.30
2019-02-27T07:13:03.349Z,81.23
2019-02-27T07:14:07.629Z,81.20
2019-02-27T07:15:12.821Z,81.10
2019-02-27T07:16:16.014Z,81.03
2019-02-27T07:17:20.137Z,80.99
2019-02-27T07:18:24.315Z,80.93
2019-02-27T07:19:28.562Z,80.89
2019-02-27T07:20:32.656Z,80.83
2019-02-27T07:21:36.937Z,80.81
2019-02-27T07:22:45.609Z,80.85
2019-02-27T07:23:45.280Z,80.78
2019-02-27T07:24:49.388Z,80.78
2019-02-27T07:25:53.651Z,80.73
2019-02-27T07:26:57.785Z,80.68
2019-02-27T07:28:03.524Z,80.63
2019-02-27T07:29:06.144Z,80.60
2019-02-27T07:30:10.402Z,80.58
2019-02-27T07:31:17.290Z,80.56
2019-02-27T07:32:18.839Z,80.52
2019-02-27T07:33:23.099Z,80.51
2019-02-27T07:34:27.274Z,80.39
2019-02-27T07:35:31.516Z,80.36
2019-02-27T07:36:35.948Z,80.38
2019-02-27T07:37:39.815Z,80.26
2019-02-27T07:38:44.175Z,80.13
2019-02-27T07:39:48.381Z,80.17
2019-02-27T07:40:53.412Z,80.14
2019-02-27T07:41:57.171Z,80.03
2019-02-27T07:43:03.351Z,80.11
2019-02-27T07:44:05.625Z,80.19
2019-02-27T07:45:10.735Z,80.18
2019-02-27T07:46:13.927Z,80.13
2019-02-27T07:47:18.097Z,80.20
2019-02-27T07:48:22.354Z,80.31
2019-02-27T07:49:28.335Z,80.37
2019-02-27T07:50:32.505Z,80.34
2019-02-27T07:51:34.841Z,80.33
2019-02-27T07:52:38.943Z,80.37
2019-02-27T07:53:43.101Z,80.38
2019-02-27T07:54:47.370Z,80.38
2019-02-27T07:55:51.694Z,80.27
2019-02-27T07:56:55.789Z,80.22
2019-02-27T07:57:59.851Z,80.21
2019-02-27T07:59:04.218Z,80.19
2019-02-27T08:00:08.297Z,80.15
2019-02-27T08:01:12.449Z,80.06
2019-02-27T08:02:16.739Z,79.77
2019-02-27T08:03:20.973Z,79.49
2019-02-27T08:04:25.094Z,79.57
2019-02-27T08:05:29.357Z,79.48
2019-02-27T08:06:35.041Z,79.53
2019-02-27T08:07:37.856Z,79.60
2019-02-27T08:08:42.007Z,79.52
2019-02-27T08:09:46.119Z,79.47
2019-02-27T08:10:50.422Z,79.42
2019-02-27T08:11:54.658Z,79.13
2019-02-27T08:12:58.882Z,79.31
2019-02-27T08:14:03.245Z,79.46
2019-02-27T08:15:07.207Z,79.23
2019-02-27T08:16:11.505Z,79.42
2019-02-27T08:17:17.831Z,79.50
2019-02-27T08:18:29.584Z,79.53
2019-02-27T08:19:24.326Z,79.54
2019-02-27T08:20:28.481Z,79.53
2019-02-27T08:21:32.695Z,79.50
2019-02-27T08:22:36.916Z,79.50
2019-02-27T08:23:41.136Z,79.46
2019-02-27T08:24:45.437Z,79.26
2019-02-27T08:25:49.715Z,79.38
2019-02-27T08:26:53.918Z,79.41
2019-02-27T08:27:58.109Z,79.42
2019-02-27T08:29:02.380Z,79.42
2019-02-27T08:30:06.477Z,79.34
2019-02-27T08:31:10.730Z,79.21
2019-02-27T08:32:14.783Z,78.92
2019-02-27T08:33:19.197Z,78.86
2019-02-27T08:34:23.372Z,78.81
2019-02-27T08:35:27.573Z,79.01
2019-02-27T08:36:31.709Z,78.71
2019-02-27T08:37:36.074Z,78.73
2019-02-27T08:38:40.373Z,78.87
2019-02-27T08:39:44.524Z,78.92
2019-02-27T08:40:48.771Z,78.95
2019-02-27T08:41:52.987Z,79.06
2019-02-27T08:42:57.379Z,78.87
2019-02-27T08:44:01.624Z,78.88
2019-02-27T08:45:05.819Z,78.79
2019-02-27T08:46:10.052Z,78.71
2019-02-27T08:47:14.295Z,78.73
2019-02-27T08:48:18.475Z,78.81
2019-02-27T08:49:24.961Z,78.66
2019-02-27T08:50:29.302Z,78.56
2019-02-27T08:51:31.328Z,78.39
2019-02-27T08:52:35.509Z,78.41
2019-02-27T08:53:39.755Z,78.35
2019-02-27T08:54:43.968Z,78.34
2019-02-27T08:55:48.234Z,78.04
2019-02-27T08:56:52.419Z,77.62
2019-02-27T08:57:57.179Z,77.99
2019-02-27T08:59:04.989Z,77.95
2019-02-27T09:00:05.149Z,78.02
2019-02-27T09:01:09.361Z,77.96
2019-02-27T09:02:13.578Z,77.88
2019-02-27T09:03:20.632Z,77.86
2019-02-27T09:04:22.066Z,77.72
2019-02-27T09:05:26.243Z,77.86
2019-02-27T09:06:30.349Z,77.67
2019-02-27T09:07:36.463Z,77.59
2019-02-27T09:08:43.164Z,77.66
2019-02-27T09:09:43.108Z,77.54
2019-02-27T09:10:47.308Z,77.27
2019-02-27T09:11:51.478Z,77.28
2019-02-27T09:13:04.826Z,77.08
2019-02-27T09:14:00.126Z,77.11
2019-02-27T09:15:04.248Z,77.08
2019-02-27T09:16:08.475Z,76.79
2019-02-27T09:17:12.738Z,77.07
2019-02-27T09:18:16.886Z,76.69
2019-02-27T09:19:21.216Z,76.75
2019-02-27T09:20:25.439Z,76.05
2019-02-27T09:21:29.672Z,75.99
2019-02-27T09:22:36.702Z,76.24
2019-02-27T09:23:38.053Z,76.28
2019-02-27T09:24:42.245Z,75.86
2019-02-27T09:25:46.548Z,75.89
2019-02-27T09:26:50.730Z,75.88
2019-02-27T09:27:55.024Z,75.70
2019-02-27T09:28:59.190Z,73.86
2019-02-27T09:30:03.517Z,75.22
2019-02-27T09:31:07.818Z,75.65
2019-02-27T09:32:12.365Z,73.59
2019-02-27T09:33:17.000Z,74.15
2019-02-27T09:34:20.641Z,72.56
2019-02-27T09:35:24.830Z,71.65
2019-02-27T09:36:29.150Z,73.37
2019-02-27T09:37:33.413Z,73.21
2019-02-27T09:38:37.689Z,72.95
2019-02-27T09:39:41.877Z,73.04
2019-02-27T09:40:46.116Z,71.70
2019-02-27T09:41:51.276Z,72.80
2019-02-27T09:42:54.707Z,72.23
2019-02-27T09:44:01.346Z,71.31
2019-02-27T09:45:03.222Z,70.67
2019-02-27T09:46:07.533Z,71.33
2019-02-27T09:47:11.769Z,72.31
2019-02-27T09:48:16.051Z,68.23
2019-02-27T09:49:20.289Z,70.31
2019-02-27T09:50:24.556Z,68.83
2019-02-27T09:51:28.816Z,70.53
2019-02-27T09:52:33.008Z,71.03
2019-02-27T09:53:37.499Z,70.34
2019-02-27T09:54:41.518Z,71.53
2019-02-27T09:55:45.818Z,71.16
2019-02-27T09:56:50.063Z,70.11
2019-02-27T09:57:54.249Z,68.47
2019-02-27T09:58:58.525Z,69.20
2019-02-27T10:00:02.997Z,68.27
2019-02-27T10:01:07.044Z,69.35
2019-02-27T10:02:12.480Z,70.11
2019-02-27T10:03:19.791Z,70.41
2019-02-27T10:04:19.827Z,70.36
2019-02-27T10:05:24.064Z,69.41
2019-02-27T10:06:28.351Z,69.23
2019-02-27T10:07:32.646Z,69.10
2019-02-27T10:08:36.933Z,68.49
2019-02-27T10:09:41.049Z,69.66
2019-02-27T10:10:46.085Z,67.49
2019-02-27T10:11:52.246Z,67.83
2019-02-27T10:12:53.885Z,68.19
2019-02-27T10:13:58.345Z,68.40
2019-02-27T10:15:02.592Z,67.73
2019-02-27T10:16:06.850Z,67.20
2019-02-27T10:17:11.095Z,67.82
2019-02-27T10:18:18.331Z,67.09
2019-02-27T10:19:19.632Z,67.30
2019-02-27T10:20:23.913Z,67.82
2019-02-27T10:21:28.186Z,67.95
2019-02-27T10:22:32.448Z,66.71
2019-02-27T10:23:36.706Z,66.93
2019-02-27T10:24:41.007Z,68.03
2019-02-27T10:25:45.336Z,67.72
2019-02-27T10:26:49.576Z,64.09
2019-02-27T10:27:53.845Z,66.04
2019-02-27T10:28:58.104Z,66.30
2019-02-27T10:30:11.119Z,64.61
2019-02-27T10:31:06.786Z,66.67
2019-02-27T10:32:11.012Z,65.90
2019-02-27T10:33:15.267Z,64.20
2019-02-27T10:34:19.610Z,64.80
2019-02-27T10:35:23.901Z,64.62
2019-02-27T10:36:28.285Z,60.17
2019-02-27T10:37:32.689Z,64.86
2019-02-27T10:38:40.233Z,63.30
2019-02-27T10:39:41.256Z,63.78
2019-02-27T10:40:46.202Z,66.32
2019-02-27T10:41:50.643Z,65.23
2019-02-27T10:42:54.133Z,64.44
2019-02-27T10:43:58.441Z,64.44
2019-02-27T10:45:02.719Z,65.17
2019-02-27T10:46:07.050Z,63.83
2019-02-27T10:47:11.293Z,64.84
2019-02-27T10:48:15.608Z,64.50
2019-02-27T10:49:21.782Z,64.16
2019-02-27T10:50:24.111Z,64.18
2019-02-27T10:51:30.410Z,64.92
2019-02-27T10:52:32.740Z,64.59
2019-02-27T10:53:37.051Z,64.67
2019-02-27T10:54:41.281Z,63.79
2019-02-27T10:55:46.439Z,58.86
2019-02-27T10:56:49.909Z,61.41
2019-02-27T10:57:54.194Z,62.66
2019-02-27T10:58:58.478Z,61.44
2019-02-27T11:00:02.890Z,62.04
2019-02-27T11:01:07.251Z,62.04
2019-02-27T11:02:12.407Z,62.65
2019-02-27T11:03:15.912Z,60.80
2019-02-27T11:04:20.102Z,62.30
2019-02-27T11:05:24.427Z,61.11
2019-02-27T11:06:34.044Z,61.12
2019-02-27T11:07:33.168Z,59.66
2019-02-27T11:08:37.455Z,58.63
2019-02-27T11:09:42.057Z,56.04
2019-02-27T11:10:46.011Z,60.29
2019-02-27T11:11:53.731Z,60.43
2019-02-27T11:12:54.609Z,60.52
2019-02-27T11:13:58.903Z,59.30
2019-02-27T11:15:03.331Z,60.18
2019-02-27T11:16:07.609Z,56.64
2019-02-27T11:17:11.746Z,59.61
2019-02-27T11:18:16.148Z,58.51
2019-02-27T11:19:20.575Z,57.52
2019-02-27T11:20:24.906Z,59.45
2019-02-27T11:21:29.163Z,58.81
2019-02-27T11:22:33.459Z,59.27
2019-02-27T11:23:40.910Z,58.61
2019-02-27T11:24:41.955Z,57.16
2019-02-27T11:25:46.170Z,56.10
2019-02-27T11:26:50.579Z,56.40
2019-02-27T11:27:54.910Z,57.99
2019-02-27T11:28:59.226Z,57.90
2019-02-27T11:30:03.385Z,53.31
2019-02-27T11:31:08.455Z,54.81
2019-02-27T11:32:12.162Z,57.13
2019-02-27T11:33:25.198Z,56.02
2019-02-27T11:34:20.772Z,54.03
2019-02-27T11:35:26.038Z,56.73
2019-02-27T11:36:29.431Z,56.13
2019-02-27T11:37:33.852Z,52.80
2019-02-27T11:38:38.088Z,55.53
2019-02-27T11:39:42.420Z,54.63
2019-02-27T11:40:46.749Z,53.63
2019-02-27T11:41:51.094Z,54.12
2019-02-27T11:42:55.453Z,55.58
2019-02-27T11:43:59.752Z,50.41
2019-02-27T11:45:04.198Z,54.04
2019-02-27T11:46:08.504Z,54.99
2019-02-27T11:47:12.850Z,51.63
2019-02-27T11:48:17.148Z,49.72
2019-02-27T11:49:21.600Z,54.09
2019-02-27T11:50:25.944Z,53.89
2019-02-27T11:51:30.408Z,52.02
2019-02-27T11:52:34.708Z,53.37
2019-02-27T11:53:39.058Z,50.95
2019-02-27T11:54:43.942Z,47.36
2019-02-27T11:55:48.133Z,48.88
2019-02-27T11:56:56.294Z,48.27
2019-02-27T11:57:56.557Z,47.62
2019-02-27T11:59:00.969Z,52.15
2019-02-27T12:00:05.270Z,52.38
2019-02-27T12:01:09.614Z,52.74
2019-02-27T12:02:13.939Z,53.88
2019-02-27T12:03:18.305Z,54.27
2019-02-27T12:04:22.662Z,49.45
2019-02-27T12:05:30.260Z,53.34
2019-02-27T12:06:31.359Z,52.17
2019-02-27T12:07:35.737Z,51.05
2019-02-27T12:08:40.055Z,46.72
2019-02-27T12:09:44.407Z,50.29
2019-02-27T12:10:48.762Z,48.27
2019-02-27T12:11:53.113Z,52.51
2019-02-27T12:13:00.950Z,51.55
2019-02-27T12:14:01.718Z,47.67
2019-02-27T12:15:06.752Z,47.74
2019-02-27T12:16:10.734Z,50.88
2019-02-27T12:17:14.889Z,51.01
2019-02-27T12:18:19.262Z,48.72
2019-02-27T12:19:23.625Z,52.57
2019-02-27T12:20:27.983Z,46.38
2019-02-27T12:21:32.329Z,50.47
2019-02-27T12:22:36.616Z,51.71
2019-02-27T12:23:41.203Z,51.19
2019-02-27T12:24:45.410Z,45.05
2019-02-27T12:25:49.790Z,50.95
2019-02-27T12:26:57.186Z,52.30
2019-02-27T12:28:00.691Z,50.82
2019-02-27T12:29:05.047Z,48.58
2019-02-27T12:30:09.398Z,50.03
2019-02-27T12:31:14.445Z,50.33
2019-02-27T12:32:19.372Z,49.00
2019-02-27T12:33:22.526Z,47.64
2019-02-27T12:34:26.886Z,48.42
2019-02-27T12:35:31.290Z,50.41
2019-02-27T12:36:35.672Z,50.91
2019-02-27T12:37:40.080Z,48.32
2019-02-27T12:38:44.512Z,49.16
2019-02-27T12:39:49.625Z,48.67
2019-02-27T12:40:53.350Z,42.63
2019-02-27T12:41:57.808Z,44.15
2019-02-27T12:43:02.158Z,47.73
2019-02-27T12:44:06.515Z,46.98
2019-02-27T12:45:10.883Z,46.81
2019-02-27T12:46:15.228Z,47.26
2019-02-27T12:47:19.636Z,48.87
2019-02-27T12:48:24.102Z,49.10
2019-02-27T12:49:28.445Z,47.62
2019-02-27T12:50:32.816Z,48.76
2019-02-27T12:51:38.300Z,48.94
2019-02-27T12:52:44.356Z,43.46
2019-02-27T12:53:45.997Z,47.77
2019-02-27T12:54:50.379Z,47.01
2019-02-27T12:55:54.802Z,47.35
2019-02-27T12:56:59.176Z,47.72
2019-02-27T12:58:03.594Z,49.51
2019-02-27T12:59:08.019Z,49.07
2019-02-27T13:00:12.402Z,48.32
2019-02-27T13:01:17.011Z,47.96
2019-02-27T13:02:25.970Z,48.28
2019-02-27T13:03:25.638Z,41.63
2019-02-27T13:04:30.035Z,41.16
2019-02-27T13:05:34.446Z,44.67
2019-02-27T13:06:38.843Z,41.52
2019-02-27T13:07:44.692Z,44.26
2019-02-27T13:08:47.616Z,41.16
2019-02-27T13:09:52.007Z,44.43
2019-02-27T13:10:56.405Z,44.23
2019-02-27T13:12:00.767Z,42.62
2019-02-27T13:13:05.219Z,42.80
2019-02-27T13:14:09.547Z,39.74
2019-02-27T13:15:13.915Z,44.65
2019-02-27T13:16:18.303Z,44.88
2019-02-27T13:17:22.667Z,43.08
2019-02-27T13:18:31.639Z,39.87
2019-02-27T13:19:31.466Z,39.15
2019-02-27T13:20:35.867Z,41.87
2019-02-27T13:21:40.285Z,41.68
2019-02-27T13:22:44.636Z,42.42
2019-02-27T13:23:49.037Z,41.37
2019-02-27T13:24:53.388Z,42.02
2019-02-27T13:26:00.536Z,40.02
2019-02-27T13:27:02.156Z,44.69
2019-02-27T13:28:06.541Z,45.41
2019-02-27T13:29:10.861Z,43.95
2019-02-27T13:30:15.207Z,42.14
2019-02-27T13:31:19.574Z,41.72
2019-02-27T13:32:26.417Z,42.26
2019-02-27T13:33:28.391Z,44.85
2019-02-27T13:34:32.732Z,45.34
2019-02-27T13:35:37.109Z,44.63
2019-02-27T13:36:41.609Z,43.97
2019-02-27T13:37:45.967Z,44.59
2019-02-27T13:38:52.258Z,40.77
2019-02-27T13:39:57.316Z,41.32
2019-02-27T13:40:59.209Z,40.96
2019-02-27T13:42:03.474Z,43.05
2019-02-27T13:43:07.931Z,43.80
2019-02-27T13:44:12.296Z,43.27
2019-02-27T13:45:16.678Z,42.99
2019-02-27T13:46:22.741Z,42.46
2019-02-27T13:47:25.434Z,41.38